createdAt,value
2018-09-14T00:00:20.909Z,0.50
2018-09-14T00:02:49.961Z,0.57
2018-09-14T00:05:18.935Z,0.40
2018-09-14T00:07:47.926Z,0.50
2018-09-14T00:10:16.970Z,1.13
2018-09-14T00:12:46.004Z,0.47
2018-09-14T00:15:15.008Z,0.47
2018-09-14T00:17:44.040Z,0.50
2018-09-14T00:20:12.999Z,0.60
2018-09-14T00:22:41.989Z,0.60
2018-09-14T00:25:10.973Z,0.37
2018-09-14T00:27:39.930Z,0.50
2018-09-14T00:30:08.921Z,0.40
2018-09-14T00:32:37.877Z,0.47
2018-09-14T00:35:07.007Z,0.50
2018-09-14T00:37:36.060Z,0.40
2018-09-14T00:40:05.244Z,0.50
2018-09-14T00:42:34.281Z,0.40
2018-09-14T00:45:03.239Z,0.50
2018-09-14T00:47:32.294Z,0.50
2018-09-14T00:50:01.294Z,0.20
2018-09-14T00:52:30.239Z,0.47
2018-09-14T00:54:59.223Z,0.40
2018-09-14T00:57:28.203Z,0.40
2018-09-14T00:59:57.257Z,0.77
2018-09-14T01:02:26.198Z,0.63
2018-09-14T01:04:55.165Z,0.40
2018-09-14T01:07:24.130Z,0.30
2018-09-14T01:09:53.138Z,0.53
2018-09-14T01:12:22.070Z,0.30
2018-09-14T01:14:51.033Z,0.60
2018-09-14T01:17:20.126Z,0.30
2018-09-14T01:19:49.111Z,0.53
2018-09-14T01:22:18.058Z,0.60
2018-09-14T01:24:47.090Z,0.40
2018-09-14T01:27:16.117Z,0.50
2018-09-14T01:29:45.158Z,0.60
2018-09-14T01:32:14.112Z,0.60
2018-09-14T01:34:43.099Z,0.60
2018-09-14T01:37:12.026Z,0.30
2018-09-14T01:39:41.059Z,0.40
2018-09-14T01:42:10.050Z,1.20
2018-09-14T01:44:39.061Z,0.60
2018-09-14T01:47:08.002Z,0.60
2018-09-14T01:49:37.005Z,1.00
2018-09-14T01:52:05.966Z,0.80
2018-09-14T01:54:34.962Z,0.70
2018-09-14T01:57:03.975Z,0.70
2018-09-14T01:59:33.084Z,0.90
2018-09-14T02:02:02.050Z,0.70
2018-09-14T02:04:31.165Z,0.60
2018-09-14T02:07:00.075Z,0.70
2018-09-14T02:09:29.105Z,0.37
2018-09-14T02:11:58.062Z,0.80
2018-09-14T02:14:27.017Z,0.73
2018-09-14T02:16:56.110Z,0.50
2018-09-14T02:19:25.174Z,0.80
2018-09-14T02:21:54.292Z,0.50
2018-09-14T02:24:23.330Z,0.80
2018-09-14T02:26:52.318Z,0.57
2018-09-14T02:29:21.374Z,1.00
2018-09-14T02:31:50.397Z,0.50
2018-09-14T02:34:19.378Z,0.90
2018-09-14T02:36:48.365Z,0.60
2018-09-14T02:39:17.278Z,1.00
2018-09-14T02:41:46.489Z,0.90
2018-09-14T02:44:15.455Z,0.80
2018-09-14T02:46:44.410Z,1.20
2018-09-14T02:49:13.381Z,0.70
2018-09-14T02:51:42.507Z,1.30
2018-09-14T02:54:11.587Z,0.90
2018-09-14T02:56:40.658Z,1.23
2018-09-14T02:59:09.658Z,1.10
2018-09-14T03:01:38.694Z,1.10
2018-09-14T03:04:08.037Z,1.10
2018-09-14T03:06:37.097Z,1.13
2018-09-14T03:09:08.228Z,1.40
2018-09-14T03:11:37.270Z,1.47
2018-09-14T03:14:06.334Z,0.93
2018-09-14T03:16:35.374Z,1.07
2018-09-14T03:19:04.474Z,1.60
2018-09-14T03:21:33.515Z,0.93
2018-09-14T03:24:02.443Z,1.17
2018-09-14T03:26:31.405Z,1.00
2018-09-14T03:29:00.372Z,2.03
2018-09-14T03:31:29.406Z,1.40
2018-09-14T03:33:58.443Z,1.77
2018-09-14T03:36:27.446Z,1.60
2018-09-14T03:38:56.474Z,1.60
2018-09-14T03:41:25.465Z,1.53
2018-09-14T03:43:54.426Z,1.80
2018-09-14T03:46:23.483Z,1.43
2018-09-14T03:48:52.555Z,1.10
2018-09-14T03:51:21.599Z,2.13
2018-09-14T03:53:50.642Z,1.97
2018-09-14T03:56:19.610Z,1.20
2018-09-14T03:58:48.557Z,1.03
2018-09-14T04:01:17.567Z,1.60
2018-09-14T04:03:46.708Z,1.17
2018-09-14T04:06:15.835Z,1.93
2018-09-14T04:08:44.787Z,1.30
2018-09-14T04:11:13.798Z,1.47
2018-09-14T04:13:42.757Z,1.40
2018-09-14T04:16:11.843Z,1.57
2018-09-14T04:18:41.064Z,1.40
2018-09-14T04:21:10.087Z,1.33
2018-09-14T04:23:39.214Z,1.43
2018-09-14T04:26:08.122Z,1.77
2018-09-14T04:28:37.262Z,1.87
2018-09-14T04:31:06.338Z,1.60
2018-09-14T04:33:35.398Z,1.70
2018-09-14T04:36:04.550Z,1.57
2018-09-14T04:38:33.539Z,1.43
2018-09-14T04:41:02.467Z,2.00
2018-09-14T04:43:31.464Z,1.60
2018-09-14T04:46:00.523Z,2.00
2018-09-14T04:48:29.561Z,1.83
2018-09-14T04:50:58.697Z,1.70
2018-09-14T04:53:27.682Z,1.20
2018-09-14T04:55:56.778Z,1.77
2018-09-14T04:58:25.808Z,1.63
2018-09-14T05:00:54.855Z,1.70
2018-09-14T05:03:23.822Z,1.43
2018-09-14T05:05:52.871Z,1.70
2018-09-14T05:08:21.902Z,1.40
2018-09-14T05:10:51.021Z,1.77
2018-09-14T05:13:19.947Z,1.47
2018-09-14T05:15:48.950Z,1.30
2018-09-14T05:18:18.019Z,1.57
2018-09-14T05:20:47.169Z,2.20
2018-09-14T05:23:16.138Z,1.77
2018-09-14T05:25:45.147Z,1.37
2018-09-14T05:28:14.309Z,1.50
2018-09-14T05:30:43.771Z,1.60
2018-09-14T05:33:13.075Z,1.60
2018-09-14T05:35:42.247Z,1.20
2018-09-14T05:38:11.519Z,1.50
2018-09-14T05:40:40.904Z,1.70
2018-09-14T05:43:10.390Z,1.47
2018-09-14T05:45:39.786Z,1.50
2018-09-14T05:48:09.019Z,2.27
2018-09-14T05:50:38.039Z,1.40
2018-09-14T05:53:07.077Z,2.10
2018-09-14T05:55:42.542Z,1.50
2018-09-14T05:58:11.567Z,2.73
2018-09-14T06:00:40.534Z,2.13
2018-09-14T06:03:09.587Z,2.97
2018-09-14T06:05:38.647Z,1.30
2018-09-14T06:08:07.713Z,2.50
2018-09-14T06:10:36.653Z,1.93
2018-09-14T06:13:05.653Z,1.80
2018-09-14T06:15:34.712Z,1.63
2018-09-14T06:18:04.763Z,1.77
2018-09-14T06:20:33.770Z,2.10
2018-09-14T06:23:02.771Z,2.70
2018-09-14T06:25:31.757Z,2.40
2018-09-14T06:28:00.839Z,1.77
2018-09-14T06:30:29.833Z,1.80
2018-09-14T06:32:58.862Z,1.43
2018-09-14T06:35:27.801Z,1.27
2018-09-14T06:37:56.882Z,1.90
2018-09-14T06:40:25.847Z,1.80
2018-09-14T06:42:54.906Z,1.50
2018-09-14T06:45:23.924Z,1.30
2018-09-14T06:47:53.015Z,1.50
2018-09-14T06:50:22.013Z,1.60
2018-09-14T06:52:51.069Z,1.50
2018-09-14T06:55:20.033Z,1.30
2018-09-14T06:57:49.035Z,1.77
2018-09-14T07:00:18.095Z,1.60
2018-09-14T07:02:47.091Z,1.17
2018-09-14T07:05:16.106Z,1.07
2018-09-14T07:07:45.106Z,1.67
2018-09-14T07:10:14.078Z,1.30
2018-09-14T07:12:43.048Z,1.23
2018-09-14T07:15:11.978Z,1.20
2018-09-14T07:17:41.154Z,1.70
2018-09-14T07:20:10.423Z,1.30
2018-09-14T07:22:39.386Z,1.40
2018-09-14T07:25:08.429Z,1.50
2018-09-14T07:27:37.449Z,1.43
2018-09-14T07:30:06.877Z,1.37
2018-09-14T07:32:35.938Z,1.13
2018-09-14T07:35:04.940Z,1.40
2018-09-14T07:37:33.944Z,1.10
2018-09-14T07:40:02.878Z,1.23
2018-09-14T07:42:32.011Z,1.47
2018-09-14T07:45:00.953Z,1.10
2018-09-14T07:47:29.914Z,1.77
2018-09-14T07:49:58.834Z,1.30
2018-09-14T07:52:27.842Z,1.10
2018-09-14T07:54:56.761Z,1.00
2018-09-14T07:57:25.762Z,1.10
2018-09-14T07:59:54.750Z,1.10
2018-09-14T08:02:23.760Z,1.30
2018-09-14T08:04:52.744Z,1.23
2018-09-14T08:07:21.775Z,1.17
2018-09-14T08:09:50.798Z,1.70
2018-09-14T08:12:19.746Z,1.30
2018-09-14T08:14:48.697Z,1.43
2018-09-14T08:17:17.695Z,1.20
2018-09-14T08:19:46.597Z,1.50
2018-09-14T08:22:15.629Z,1.87
2018-09-14T08:24:44.575Z,2.07
2018-09-14T08:27:13.757Z,1.40
2018-09-14T08:29:42.698Z,2.23
2018-09-14T08:32:11.719Z,1.50
2018-09-14T08:34:40.711Z,1.33
2018-09-14T08:37:09.687Z,1.30
2018-09-14T08:39:38.694Z,1.33
2018-09-14T08:42:07.681Z,1.50
2018-09-14T08:44:36.679Z,1.67
2018-09-14T08:47:05.813Z,1.57
2018-09-14T08:49:34.786Z,1.57
2018-09-14T08:52:03.756Z,1.90
2018-09-14T08:54:32.909Z,1.40
2018-09-14T08:57:01.842Z,1.70
2018-09-14T08:59:30.850Z,1.70
2018-09-14T09:01:59.827Z,1.80
2018-09-14T09:04:28.943Z,1.53
2018-09-14T09:06:57.875Z,1.47
2018-09-14T09:09:26.853Z,1.73
2018-09-14T09:11:55.863Z,2.60
2018-09-14T09:14:24.982Z,1.50
2018-09-14T09:16:53.946Z,1.50
2018-09-14T09:19:22.908Z,1.43
2018-09-14T09:21:51.846Z,2.10
2018-09-14T09:24:20.811Z,1.63
2018-09-14T09:26:49.722Z,2.30
2018-09-14T09:29:18.775Z,1.37
2018-09-14T09:31:47.834Z,2.50
2018-09-14T09:34:17.003Z,1.63
2018-09-14T09:36:45.950Z,1.70
2018-09-14T09:39:14.987Z,1.90
2018-09-14T09:41:43.913Z,1.57
2018-09-14T09:44:12.846Z,1.57
2018-09-14T09:46:41.740Z,1.50
2018-09-14T09:49:10.687Z,1.20
2018-09-14T09:51:39.722Z,1.60
2018-09-14T09:54:08.753Z,1.20
2018-09-14T09:56:37.886Z,1.50
2018-09-14T09:59:06.886Z,1.50
2018-09-14T10:01:39.894Z,1.63
2018-09-14T10:04:13.999Z,1.87
2018-09-14T10:06:42.986Z,1.20
2018-09-14T10:09:11.948Z,1.63
2018-09-14T10:11:40.994Z,1.30
2018-09-14T10:14:10.060Z,1.70
2018-09-14T10:16:39.049Z,1.20
2018-09-14T10:19:08.067Z,1.50
2018-09-14T10:21:37.037Z,1.33
2018-09-14T10:24:06.053Z,1.37
2018-09-14T10:26:35.041Z,1.43
2018-09-14T10:29:04.059Z,1.63
2018-09-14T10:31:33.017Z,2.00
2018-09-14T10:34:02.112Z,1.37
2018-09-14T10:36:31.081Z,0.77
2018-09-14T10:39:00.047Z,1.03
2018-09-14T10:41:29.091Z,1.30
2018-09-14T10:43:58.170Z,1.40
2018-09-14T10:46:27.102Z,1.63
2018-09-14T10:48:56.086Z,1.27
2018-09-14T10:51:25.118Z,1.67
2018-09-14T10:53:54.091Z,1.63
2018-09-14T10:56:23.098Z,1.27
2018-09-14T10:58:52.153Z,1.37
2018-09-14T11:01:21.091Z,1.27
2018-09-14T11:03:50.077Z,1.40
2018-09-14T11:06:19.093Z,1.37
2018-09-14T11:08:48.098Z,1.47
2018-09-14T11:11:17.094Z,1.20
2018-09-14T11:13:46.155Z,2.03
2018-09-14T11:16:15.098Z,1.17
2018-09-14T11:18:44.185Z,1.27
2018-09-14T11:21:13.179Z,1.03
2018-09-14T11:23:42.189Z,1.40
2018-09-14T11:26:11.205Z,1.43
2018-09-14T11:28:40.189Z,1.30
2018-09-14T11:31:09.210Z,1.30
2018-09-14T11:33:38.229Z,1.30
2018-09-14T11:36:07.413Z,1.33
2018-09-14T11:38:36.443Z,1.13
2018-09-14T11:41:05.521Z,1.70
2018-09-14T11:43:34.458Z,1.23
2018-09-14T11:46:03.477Z,1.10
2018-09-14T11:48:32.517Z,1.50
2018-09-14T11:51:01.520Z,1.23
2018-09-14T11:53:30.529Z,1.17
2018-09-14T11:55:59.510Z,0.70
2018-09-14T11:58:28.506Z,1.33
2018-09-14T12:00:57.609Z,1.47
2018-09-14T12:03:26.566Z,1.37
2018-09-14T12:05:55.642Z,2.10
2018-09-14T12:08:24.581Z,1.33
2018-09-14T12:10:53.617Z,1.20
2018-09-14T12:13:22.642Z,1.30
2018-09-14T12:15:51.720Z,1.17
2018-09-14T12:18:21.066Z,1.30
2018-09-14T12:20:50.169Z,1.30
2018-09-14T12:23:19.173Z,1.50
2018-09-14T12:25:48.327Z,1.43
2018-09-14T12:28:17.335Z,1.17
2018-09-14T12:30:46.266Z,1.00
2018-09-14T12:33:15.258Z,1.20
2018-09-14T12:35:44.384Z,0.83
2018-09-14T12:38:13.381Z,1.20
2018-09-14T12:40:42.393Z,1.80
2018-09-14T12:43:11.358Z,1.23
2018-09-14T12:45:40.350Z,1.10
2018-09-14T12:48:09.318Z,1.30
2018-09-14T12:50:38.398Z,1.43
2018-09-14T12:53:07.366Z,1.50
2018-09-14T12:55:36.398Z,0.93
2018-09-14T12:58:05.381Z,1.10
2018-09-14T13:00:34.415Z,1.20
2018-09-14T13:03:03.357Z,1.20
2018-09-14T13:05:32.310Z,1.30
2018-09-14T13:08:01.241Z,1.30
2018-09-14T13:10:30.289Z,1.30
2018-09-14T13:12:59.293Z,1.30
2018-09-14T13:15:28.338Z,1.20
2018-09-14T13:17:57.326Z,1.20
2018-09-14T13:20:26.337Z,1.43
2018-09-14T13:22:55.314Z,1.37
2018-09-14T13:25:24.275Z,1.23
2018-09-14T13:27:53.353Z,1.10
2018-09-14T13:30:22.345Z,0.83
2018-09-14T13:32:52.144Z,1.27
2018-09-14T13:35:22.981Z,1.70
2018-09-14T13:37:52.641Z,1.00
2018-09-14T13:40:22.010Z,0.93
2018-09-14T13:42:51.418Z,1.00
2018-09-14T13:45:20.539Z,1.10
2018-09-14T13:47:49.449Z,1.17
2018-09-14T13:50:18.459Z,1.20
2018-09-14T13:52:47.469Z,1.10
2018-09-14T13:55:16.561Z,1.00
2018-09-14T13:57:52.198Z,0.80
2018-09-14T14:00:21.225Z,0.90
2018-09-14T14:02:50.292Z,1.00
2018-09-14T14:05:19.275Z,0.87
2018-09-14T14:07:48.198Z,0.93
2018-09-14T14:10:17.225Z,0.80
2018-09-14T14:12:46.217Z,1.30
2018-09-14T14:15:15.376Z,1.20
2018-09-14T14:17:44.389Z,1.30
2018-09-14T14:20:13.522Z,1.20
2018-09-14T14:22:42.537Z,1.40
2018-09-14T14:25:11.541Z,1.07
2018-09-14T14:27:40.566Z,1.10
2018-09-14T14:30:09.600Z,1.20
2018-09-14T14:32:38.563Z,1.10
2018-09-14T14:35:07.589Z,1.07
2018-09-14T14:37:36.557Z,1.60
2018-09-14T14:40:05.620Z,1.37
2018-09-14T14:42:34.574Z,0.80
2018-09-14T14:45:03.547Z,1.27
2018-09-14T14:47:32.462Z,1.27
2018-09-14T14:50:01.410Z,1.00
2018-09-14T14:52:30.429Z,0.80
2018-09-14T14:54:59.402Z,0.97
2018-09-14T14:57:28.373Z,1.20
2018-09-14T14:59:57.376Z,1.40
2018-09-14T15:02:26.412Z,1.40
2018-09-14T15:04:55.421Z,1.10
2018-09-14T15:07:24.445Z,1.00
2018-09-14T15:09:53.541Z,0.83
2018-09-14T15:12:22.499Z,1.10
2018-09-14T15:14:51.510Z,1.00
2018-09-14T15:17:20.632Z,1.20
2018-09-14T15:19:49.550Z,1.33
2018-09-14T15:22:18.546Z,0.90
2018-09-14T15:24:47.554Z,1.00
2018-09-14T15:27:16.659Z,1.27
2018-09-14T15:29:45.634Z,1.00
2018-09-14T15:32:14.614Z,1.20
2018-09-14T15:34:43.618Z,1.33
2018-09-14T15:37:12.589Z,1.20
2018-09-14T15:39:41.538Z,1.10
2018-09-14T15:42:10.579Z,1.10
2018-09-14T15:44:39.533Z,1.00
2018-09-14T15:47:08.518Z,1.33
2018-09-14T15:49:37.412Z,1.20
2018-09-14T15:52:06.413Z,1.20
2018-09-14T15:54:35.366Z,1.10
2018-09-14T15:57:04.421Z,1.23
2018-09-14T15:59:33.394Z,1.07
2018-09-14T16:02:02.388Z,1.27
2018-09-14T16:04:31.356Z,1.50
2018-09-14T16:07:00.415Z,1.30
2018-09-14T16:09:29.334Z,0.97
2018-09-14T16:11:58.309Z,1.00
2018-09-14T16:14:27.318Z,1.03
2018-09-14T16:16:56.286Z,1.00
2018-09-14T16:19:25.274Z,1.07
2018-09-14T16:21:54.287Z,1.17
2018-09-14T16:24:23.238Z,1.10
2018-09-14T16:26:52.427Z,1.10
2018-09-14T16:29:21.461Z,0.90
2018-09-14T16:31:50.502Z,1.77
2018-09-14T16:34:19.384Z,1.13
2018-09-14T16:36:48.424Z,0.90
2018-09-14T16:39:17.509Z,0.80
2018-09-14T16:41:46.557Z,1.30
2018-09-14T16:44:15.533Z,1.10
2018-09-14T16:46:44.520Z,1.23
2018-09-14T16:49:13.465Z,1.00
2018-09-14T16:51:42.528Z,2.00
2018-09-14T16:54:11.441Z,1.30
2018-09-14T16:56:40.642Z,1.30
2018-09-14T16:59:09.606Z,1.23
2018-09-14T17:01:38.568Z,1.13
2018-09-14T17:04:07.555Z,1.00
2018-09-14T17:06:36.571Z,1.23
2018-09-14T17:09:07.716Z,1.23
2018-09-14T17:11:36.774Z,1.13
2018-09-14T17:14:06.633Z,1.40
2018-09-14T17:16:35.619Z,1.97
2018-09-14T17:19:04.594Z,2.20
2018-09-14T17:21:33.650Z,1.60
2018-09-14T17:24:02.630Z,2.37
2018-09-14T17:26:31.684Z,1.73
2018-09-14T17:29:00.695Z,1.83
2018-09-14T17:31:29.814Z,2.40
2018-09-14T17:33:58.861Z,1.40
2018-09-14T17:36:27.882Z,1.60
2018-09-14T17:38:56.853Z,1.73
2018-09-14T17:41:25.906Z,2.00
2018-09-14T17:43:54.938Z,1.70
2018-09-14T17:46:23.958Z,1.43
2018-09-14T17:48:52.955Z,1.93
2018-09-14T17:51:21.985Z,1.87
2018-09-14T17:53:50.935Z,2.17
2018-09-14T17:56:19.985Z,2.13
2018-09-14T17:58:49.218Z,1.60
2018-09-14T18:01:18.210Z,1.93
2018-09-14T18:03:47.276Z,2.47
2018-09-14T18:06:16.281Z,1.50
2018-09-14T18:08:45.310Z,2.00
2018-09-14T18:11:14.396Z,1.57
2018-09-14T18:13:43.435Z,1.80
2018-09-14T18:16:12.509Z,2.03
2018-09-14T18:18:41.481Z,2.00
2018-09-14T18:21:10.434Z,1.60
2018-09-14T18:23:39.454Z,1.57
2018-09-14T18:26:08.487Z,2.10
2018-09-14T18:28:37.514Z,2.10
2018-09-14T18:31:06.717Z,2.20
2018-09-14T18:33:35.803Z,1.63
2018-09-14T18:36:04.794Z,1.93
2018-09-14T18:38:33.744Z,1.70
2018-09-14T18:41:02.691Z,2.10
2018-09-14T18:43:31.736Z,2.23
2018-09-14T18:46:00.810Z,2.30
2018-09-14T18:48:29.880Z,1.70
2018-09-14T18:50:58.814Z,1.80
2018-09-14T18:53:27.860Z,1.90
2018-09-14T18:55:56.792Z,1.83
2018-09-14T18:58:25.864Z,1.90
2018-09-14T19:00:54.805Z,2.30
2018-09-14T19:03:23.779Z,1.53
2018-09-14T19:05:52.722Z,1.70
2018-09-14T19:08:22.162Z,1.90
2018-09-14T19:10:51.213Z,2.10
2018-09-14T19:13:20.155Z,2.17
2018-09-14T19:15:49.269Z,1.80
2018-09-14T19:18:18.182Z,2.20
2018-09-14T19:20:47.149Z,2.10
2018-09-14T19:23:16.115Z,2.20
2018-09-14T19:25:45.165Z,1.90
2018-09-14T19:28:14.268Z,2.10
2018-09-14T19:30:43.265Z,1.60
2018-09-14T19:33:12.183Z,1.70
2018-09-14T19:35:41.186Z,2.03
2018-09-14T19:38:10.122Z,1.87
2018-09-14T19:40:39.095Z,2.00
2018-09-14T19:43:08.031Z,1.70
2018-09-14T19:45:36.986Z,2.10
2018-09-14T19:48:06.064Z,1.70
2018-09-14T19:50:35.014Z,1.60
2018-09-14T19:53:03.947Z,1.50
2018-09-14T19:55:33.007Z,1.73
2018-09-14T19:58:01.946Z,2.00
2018-09-14T20:00:30.922Z,2.23
2018-09-14T20:02:59.853Z,2.00
2018-09-14T20:05:28.834Z,2.20
2018-09-14T20:07:57.797Z,1.80
2018-09-14T20:10:26.802Z,1.93
2018-09-14T20:12:55.737Z,2.10
2018-09-14T20:15:24.654Z,2.10
2018-09-14T20:17:53.661Z,1.80
2018-09-14T20:20:22.734Z,1.40
2018-09-14T20:22:51.786Z,1.50
2018-09-14T20:25:20.709Z,1.60
2018-09-14T20:27:49.810Z,1.60
2018-09-14T20:30:18.835Z,2.00
2018-09-14T20:32:47.781Z,1.40
2018-09-14T20:35:16.725Z,1.60
2018-09-14T20:37:45.806Z,1.10
2018-09-14T20:40:14.759Z,1.70
2018-09-14T20:42:43.786Z,1.47
2018-09-14T20:45:12.734Z,1.57
2018-09-14T20:47:41.869Z,1.50
2018-09-14T20:50:10.775Z,1.80
2018-09-14T20:52:39.785Z,1.60
2018-09-14T20:55:08.722Z,1.50
2018-09-14T20:57:37.698Z,1.80
2018-09-14T21:00:06.707Z,1.20
2018-09-14T21:02:35.702Z,1.60
2018-09-14T21:05:04.705Z,1.47
2018-09-14T21:07:33.726Z,1.23
2018-09-14T21:10:02.690Z,1.50
2018-09-14T21:12:31.674Z,1.37
2018-09-14T21:15:00.712Z,1.87
2018-09-14T21:17:29.700Z,1.53
2018-09-14T21:19:58.633Z,1.87
2018-09-14T21:22:27.663Z,2.30
2018-09-14T21:24:56.707Z,1.77
2018-09-14T21:27:25.731Z,2.10
2018-09-14T21:29:54.732Z,1.70
2018-09-14T21:32:23.722Z,1.70
2018-09-14T21:34:52.703Z,1.57
2018-09-14T21:37:21.733Z,2.10
2018-09-14T21:39:50.730Z,2.17
2018-09-14T21:42:19.709Z,1.63
2018-09-14T21:44:48.683Z,1.90
2018-09-14T21:47:17.766Z,1.57
2018-09-14T21:49:46.793Z,1.30
2018-09-14T21:52:15.775Z,1.83
2018-09-14T21:54:44.773Z,1.50
2018-09-14T21:57:13.763Z,1.70
2018-09-14T21:59:42.700Z,1.60
2018-09-14T22:02:11.691Z,1.27
2018-09-14T22:04:40.682Z,1.67
2018-09-14T22:07:10.005Z,1.27
2018-09-14T22:09:39.050Z,1.60
2018-09-14T22:12:08.204Z,1.53
2018-09-14T22:14:37.175Z,2.27
2018-09-14T22:17:06.148Z,1.23
2018-09-14T22:19:35.092Z,1.30
2018-09-14T22:22:04.209Z,1.50
2018-09-14T22:24:33.073Z,1.57
2018-09-14T22:27:02.076Z,1.43
2018-09-14T22:29:31.058Z,2.00
2018-09-14T22:32:00.023Z,1.70
2018-09-14T22:34:29.068Z,1.40
2018-09-14T22:36:58.168Z,2.10
2018-09-14T22:39:27.154Z,1.33
2018-09-14T22:41:56.144Z,1.73
2018-09-14T22:44:25.131Z,1.90
2018-09-14T22:46:54.139Z,1.17
2018-09-14T22:49:23.111Z,2.00
2018-09-14T22:51:52.341Z,1.00
2018-09-14T22:54:21.350Z,2.00
2018-09-14T22:56:50.302Z,1.83
2018-09-14T22:59:19.306Z,1.73
2018-09-14T23:01:52.330Z,1.33
2018-09-14T23:04:21.602Z,1.37
2018-09-14T23:06:51.120Z,2.10
2018-09-14T23:09:20.174Z,2.07
2018-09-14T23:11:49.111Z,1.40
2018-09-14T23:14:18.110Z,2.10
2018-09-14T23:16:47.106Z,1.80
2018-09-14T23:19:16.117Z,2.07
2018-09-14T23:21:45.184Z,1.50
2018-09-14T23:24:14.164Z,1.97
2018-09-14T23:26:43.294Z,1.50
2018-09-14T23:29:12.370Z,1.10
2018-09-14T23:31:41.369Z,1.33
2018-09-14T23:34:10.325Z,1.60
2018-09-14T23:36:39.274Z,1.73
2018-09-14T23:39:09.899Z,1.40
2018-09-14T23:41:38.881Z,1.60
2018-09-14T23:44:08.124Z,1.70
2018-09-14T23:46:37.113Z,2.00
2018-09-14T23:49:06.106Z,1.33
2018-09-14T23:51:35.008Z,2.43
2018-09-14T23:54:04.021Z,1.40
2018-09-14T23:56:32.961Z,1.90
2018-09-14T23:59:01.961Z,1.83
